sensor_id;sensor_type;location;lat;lon;timestamp;P1;durP1;ratioP1;P2;durP2;ratioP2
37791;SDS011;29527;55.766;37.570;2024-02-16T00:00:40;24.33;;;11.90;;
37791;SDS011;29527;55.766;37.570;2024-02-16T00:03:09;24.35;;;11.88;;
37791;SDS011;29527;55.766;37.570;2024-02-16T00:05:35;22.27;;;11.45;;
37791;SDS011;29527;55.766;37.570;2024-02-16T00:08:01;26.25;;;11.55;;
37791;SDS011;29527;55.766;37.570;2024-02-16T00:10:28;17.13;;;8.73;;
37791;SDS011;29527;55.766;37.570;2024-02-16T00:12:53;24.80;;;11.48;;
37791;SDS011;29527;55.766;37.570;2024-02-16T00:15:19;25.73;;;12.70;;
37791;SDS011;29527;55.766;37.570;2024-02-16T00:17:45;23.50;;;11.23;;
37791;SDS011;29527;55.766;37.570;2024-02-16T00:20:10;26.52;;;11.27;;
37791;SDS011;29527;55.766;37.570;2024-02-16T00:22:37;24.67;;;11.25;;
37791;SDS011;29527;55.766;37.570;2024-02-16T00:25:03;23.77;;;12.57;;
37791;SDS011;29527;55.766;37.570;2024-02-16T00:27:29;21.13;;;11.48;;
37791;SDS011;29527;55.766;37.570;2024-02-16T00:29:54;26.85;;;12.52;;
37791;SDS011;29527;55.766;37.570;2024-02-16T00:32:20;26.30;;;12.50;;
37791;SDS011;29527;55.766;37.570;2024-02-16T00:34:45;25.35;;;11.43;;
37791;SDS011;29527;55.766;37.570;2024-02-16T00:37:11;25.10;;;11.85;;
37791;SDS011;29527;55.766;37.570;2024-02-16T00:39:37;24.65;;;11.63;;
37791;SDS011;29527;55.766;37.570;2024-02-16T00:42:06;30.77;;;12.52;;
37791;SDS011;29527;55.766;37.570;2024-02-16T00:44:32;23.30;;;10.95;;
37791;SDS011;29527;55.766;37.570;2024-02-16T00:46:57;22.48;;;10.93;;
37791;SDS011;29527;55.766;37.570;2024-02-16T00:49:23;26.90;;;11.90;;
37791;SDS011;29527;55.766;37.570;2024-02-16T00:51:49;24.60;;;11.68;;
37791;SDS011;29527;55.766;37.570;2024-02-16T00:54:15;22.38;;;10.98;;
37791;SDS011;29527;55.766;37.570;2024-02-16T00:56:42;24.27;;;11.77;;
37791;SDS011;29527;55.766;37.570;2024-02-16T00:59:07;23.13;;;10.07;;
37791;SDS011;29527;55.766;37.570;2024-02-16T01:01:34;22.17;;;11.02;;
37791;SDS011;29527;55.766;37.570;2024-02-16T01:04:01;24.73;;;11.68;;
37791;SDS011;29527;55.766;37.570;2024-02-16T01:06:27;25.60;;;11.05;;
37791;SDS011;29527;55.766;37.570;2024-02-16T01:08:53;24.13;;;10.68;;
37791;SDS011;29527;55.766;37.570;2024-02-16T01:11:18;23.73;;;10.23;;
37791;SDS011;29527;55.766;37.570;2024-02-16T01:13:45;25.83;;;12.27;;
37791;SDS011;29527;55.766;37.570;2024-02-16T01:16:11;29.90;;;10.95;;
37791;SDS011;29527;55.766;37.570;2024-02-16T01:18:36;27.30;;;11.48;;
37791;SDS011;29527;55.766;37.570;2024-02-16T01:21:02;29.13;;;11.38;;
37791;SDS011;29527;55.766;37.570;2024-02-16T01:23:28;24.80;;;11.35;;
37791;SDS011;29527;55.766;37.570;2024-02-16T01:25:54;28.40;;;12.27;;
37791;SDS011;29527;55.766;37.570;2024-02-16T01:28:20;21.95;;;11.00;;
37791;SDS011;29527;55.766;37.570;2024-02-16T01:30:45;26.42;;;12.43;;
37791;SDS011;29527;55.766;37.570;2024-02-16T01:33:10;23.75;;;11.73;;
37791;SDS011;29527;55.766;37.570;2024-02-16T01:35:36;25.85;;;11.75;;
37791;SDS011;29527;55.766;37.570;2024-02-16T01:38:02;23.35;;;11.60;;
37791;SDS011;29527;55.766;37.570;2024-02-16T01:40:27;27.58;;;12.48;;
37791;SDS011;29527;55.766;37.570;2024-02-16T01:42:53;26.25;;;13.00;;
37791;SDS011;29527;55.766;37.570;2024-02-16T01:45:19;25.85;;;12.38;;
37791;SDS011;29527;55.766;37.570;2024-02-16T01:47:45;22.70;;;11.73;;
37791;SDS011;29527;55.766;37.570;2024-02-16T01:50:13;21.88;;;11.13;;
37791;SDS011;29527;55.766;37.570;2024-02-16T01:52:40;24.90;;;12.35;;
37791;SDS011;29527;55.766;37.570;2024-02-16T01:55:09;23.80;;;11.40;;
37791;SDS011;29527;55.766;37.570;2024-02-16T01:57:35;24.55;;;12.40;;
37791;SDS011;29527;55.766;37.570;2024-02-16T02:00:03;24.30;;;12.38;;
37791;SDS011;29527;55.766;37.570;2024-02-16T02:02:30;25.73;;;12.45;;
37791;SDS011;29527;55.766;37.570;2024-02-16T02:04:56;27.15;;;13.18;;
37791;SDS011;29527;55.766;37.570;2024-02-16T02:07:24;24.83;;;11.63;;
37791;SDS011;29527;55.766;37.570;2024-02-16T02:09:54;26.20;;;12.18;;
37791;SDS011;29527;55.766;37.570;2024-02-16T02:12:20;25.73;;;11.85;;
37791;SDS011;29527;55.766;37.570;2024-02-16T02:14:46;24.20;;;11.60;;
37791;SDS011;29527;55.766;37.570;2024-02-16T02:17:12;23.45;;;11.73;;
37791;SDS011;29527;55.766;37.570;2024-02-16T02:19:38;25.75;;;12.20;;
37791;SDS011;29527;55.766;37.570;2024-02-16T02:22:03;22.52;;;11.75;;
37791;SDS011;29527;55.766;37.570;2024-02-16T02:24:29;16.65;;;7.95;;
37791;SDS011;29527;55.766;37.570;2024-02-16T02:26:54;22.55;;;11.57;;
37791;SDS011;29527;55.766;37.570;2024-02-16T02:29:20;27.42;;;12.07;;
37791;SDS011;29527;55.766;37.570;2024-02-16T02:31:45;26.50;;;12.73;;
37791;SDS011;29527;55.766;37.570;2024-02-16T02:34:11;26.58;;;12.13;;
37791;SDS011;29527;55.766;37.570;2024-02-16T02:36:36;25.75;;;12.63;;
37791;SDS011;29527;55.766;37.570;2024-02-16T02:39:02;22.20;;;12.02;;
37791;SDS011;29527;55.766;37.570;2024-02-16T02:41:28;28.30;;;13.25;;
37791;SDS011;29527;55.766;37.570;2024-02-16T02:43:53;27.88;;;12.75;;
37791;SDS011;29527;55.766;37.570;2024-02-16T02:46:19;27.13;;;12.50;;
37791;SDS011;29527;55.766;37.570;2024-02-16T02:48:44;28.88;;;13.00;;
37791;SDS011;29527;55.766;37.570;2024-02-16T02:51:11;23.40;;;11.43;;
37791;SDS011;29527;55.766;37.570;2024-02-16T02:53:37;23.70;;;12.25;;
37791;SDS011;29527;55.766;37.570;2024-02-16T02:56:03;24.83;;;11.73;;
37791;SDS011;29527;55.766;37.570;2024-02-16T02:58:29;27.75;;;12.80;;
37791;SDS011;29527;55.766;37.570;2024-02-16T03:00:55;22.25;;;11.20;;
37791;SDS011;29527;55.766;37.570;2024-02-16T03:03:20;26.45;;;12.52;;
37791;SDS011;29527;55.766;37.570;2024-02-16T03:05:46;22.92;;;12.27;;
37791;SDS011;29527;55.766;37.570;2024-02-16T03:08:12;24.52;;;12.32;;
37791;SDS011;29527;55.766;37.570;2024-02-16T03:10:37;24.25;;;10.95;;
37791;SDS011;29527;55.766;37.570;2024-02-16T03:13:04;25.52;;;12.48;;
37791;SDS011;29527;55.766;37.570;2024-02-16T03:15:32;31.27;;;13.38;;
37791;SDS011;29527;55.766;37.570;2024-02-16T03:17:58;25.38;;;13.10;;
37791;SDS011;29527;55.766;37.570;2024-02-16T03:20:24;24.67;;;10.30;;
37791;SDS011;29527;55.766;37.570;2024-02-16T03:22:50;28.30;;;12.88;;
37791;SDS011;29527;55.766;37.570;2024-02-16T03:25:15;28.05;;;12.45;;
37791;SDS011;29527;55.766;37.570;2024-02-16T03:27:42;30.52;;;13.30;;
37791;SDS011;29527;55.766;37.570;2024-02-16T03:30:08;29.25;;;13.02;;
37791;SDS011;29527;55.766;37.570;2024-02-16T03:32:34;27.20;;;12.88;;
37791;SDS011;29527;55.766;37.570;2024-02-16T03:34:59;28.65;;;13.02;;
37791;SDS011;29527;55.766;37.570;2024-02-16T03:37:25;26.52;;;12.35;;
37791;SDS011;29527;55.766;37.570;2024-02-16T03:39:51;31.95;;;13.80;;
37791;SDS011;29527;55.766;37.570;2024-02-16T03:42:17;29.17;;;12.57;;
37791;SDS011;29527;55.766;37.570;2024-02-16T03:44:44;27.10;;;12.98;;
37791;SDS011;29527;55.766;37.570;2024-02-16T03:47:10;25.85;;;13.40;;
37791;SDS011;29527;55.766;37.570;2024-02-16T03:49:35;28.70;;;13.80;;
37791;SDS011;29527;55.766;37.570;2024-02-16T03:52:01;30.77;;;13.93;;
37791;SDS011;29527;55.766;37.570;2024-02-16T03:54:27;27.92;;;14.07;;
37791;SDS011;29527;55.766;37.570;2024-02-16T03:56:53;26.45;;;11.05;;
37791;SDS011;29527;55.766;37.570;2024-02-16T03:59:19;28.30;;;13.52;;
37791;SDS011;29527;55.766;37.570;2024-02-16T04:01:44;22.13;;;11.80;;
37791;SDS011;29527;55.766;37.570;2024-02-16T04:04:10;32.65;;;13.98;;
37791;SDS011;29527;55.766;37.570;2024-02-16T04:06:36;29.52;;;13.88;;
37791;SDS011;29527;55.766;37.570;2024-02-16T04:09:01;27.70;;;13.77;;
37791;SDS011;29527;55.766;37.570;2024-02-16T04:11:27;32.60;;;15.98;;
37791;SDS011;29527;55.766;37.570;2024-02-16T04:13:54;30.35;;;14.85;;
37791;SDS011;29527;55.766;37.570;2024-02-16T04:16:20;36.47;;;16.70;;
37791;SDS011;29527;55.766;37.570;2024-02-16T04:18:47;30.27;;;13.73;;
37791;SDS011;29527;55.766;37.570;2024-02-16T04:21:12;38.33;;;15.95;;
37791;SDS011;29527;55.766;37.570;2024-02-16T04:23:38;37.58;;;15.00;;
37791;SDS011;29527;55.766;37.570;2024-02-16T04:26:03;44.53;;;18.73;;
37791;SDS011;29527;55.766;37.570;2024-02-16T04:28:31;39.70;;;14.38;;
37791;SDS011;29527;55.766;37.570;2024-02-16T04:30:57;41.40;;;17.63;;
37791;SDS011;29527;55.766;37.570;2024-02-16T04:33:22;46.70;;;17.73;;
37791;SDS011;29527;55.766;37.570;2024-02-16T04:35:48;41.97;;;18.42;;
37791;SDS011;29527;55.766;37.570;2024-02-16T04:38:15;37.95;;;17.42;;
37791;SDS011;29527;55.766;37.570;2024-02-16T04:40:42;40.63;;;18.38;;
37791;SDS011;29527;55.766;37.570;2024-02-16T04:43:07;38.70;;;17.05;;
37791;SDS011;29527;55.766;37.570;2024-02-16T04:45:33;39.17;;;18.15;;
37791;SDS011;29527;55.766;37.570;2024-02-16T04:48:03;39.63;;;18.17;;
37791;SDS011;29527;55.766;37.570;2024-02-16T04:50:31;51.70;;;17.77;;
37791;SDS011;29527;55.766;37.570;2024-02-16T04:52:58;33.42;;;15.90;;
37791;SDS011;29527;55.766;37.570;2024-02-16T04:55:23;33.80;;;16.88;;
37791;SDS011;29527;55.766;37.570;2024-02-16T04:57:49;32.03;;;15.52;;
37791;SDS011;29527;55.766;37.570;2024-02-16T05:00:14;36.90;;;15.85;;
37791;SDS011;29527;55.766;37.570;2024-02-16T05:02:40;35.00;;;16.00;;
37791;SDS011;29527;55.766;37.570;2024-02-16T05:05:06;33.63;;;15.13;;
37791;SDS011;29527;55.766;37.570;2024-02-16T05:07:32;34.00;;;15.60;;
37791;SDS011;29527;55.766;37.570;2024-02-16T05:09:58;30.08;;;14.13;;
37791;SDS011;29527;55.766;37.570;2024-02-16T05:12:24;34.17;;;15.02;;
37791;SDS011;29527;55.766;37.570;2024-02-16T05:14:51;34.70;;;14.18;;
37791;SDS011;29527;55.766;37.570;2024-02-16T05:17:17;28.73;;;14.35;;
37791;SDS011;29527;55.766;37.570;2024-02-16T05:19:44;29.20;;;13.63;;
37791;SDS011;29527;55.766;37.570;2024-02-16T05:22:09;31.90;;;13.70;;
37791;SDS011;29527;55.766;37.570;2024-02-16T05:24:35;28.38;;;13.27;;
37791;SDS011;29527;55.766;37.570;2024-02-16T05:27:00;33.33;;;13.90;;
37791;SDS011;29527;55.766;37.570;2024-02-16T05:29:26;28.05;;;12.20;;
37791;SDS011;29527;55.766;37.570;2024-02-16T05:31:52;34.05;;;15.05;;
37791;SDS011;29527;55.766;37.570;2024-02-16T05:34:17;25.27;;;12.55;;
37791;SDS011;29527;55.766;37.570;2024-02-16T05:36:43;29.92;;;13.95;;
37791;SDS011;29527;55.766;37.570;2024-02-16T05:39:10;23.25;;;11.60;;
37791;SDS011;29527;55.766;37.570;2024-02-16T05:41:45;28.45;;;13.70;;
37791;SDS011;29527;55.766;37.570;2024-02-16T05:44:11;28.75;;;12.27;;
37791;SDS011;29527;55.766;37.570;2024-02-16T05:46:37;29.48;;;13.48;;
37791;SDS011;29527;55.766;37.570;2024-02-16T05:49:03;27.13;;;14.07;;
37791;SDS011;29527;55.766;37.570;2024-02-16T05:51:36;33.85;;;13.95;;
37791;SDS011;29527;55.766;37.570;2024-02-16T05:54:02;33.25;;;14.38;;
37791;SDS011;29527;55.766;37.570;2024-02-16T05:56:28;33.78;;;14.50;;
37791;SDS011;29527;55.766;37.570;2024-02-16T05:58:54;32.25;;;14.45;;
37791;SDS011;29527;55.766;37.570;2024-02-16T06:01:19;28.48;;;13.38;;
37791;SDS011;29527;55.766;37.570;2024-02-16T06:03:45;28.92;;;14.40;;
37791;SDS011;29527;55.766;37.570;2024-02-16T06:06:10;34.58;;;13.80;;
37791;SDS011;29527;55.766;37.570;2024-02-16T06:08:35;31.30;;;14.52;;
37791;SDS011;29527;55.766;37.570;2024-02-16T06:11:01;27.92;;;13.23;;
37791;SDS011;29527;55.766;37.570;2024-02-16T06:13:27;24.13;;;12.68;;
37791;SDS011;29527;55.766;37.570;2024-02-16T06:15:54;58.80;;;16.88;;
37791;SDS011;29527;55.766;37.570;2024-02-16T06:18:20;26.52;;;12.95;;
37791;SDS011;29527;55.766;37.570;2024-02-16T06:20:45;27.95;;;13.88;;
37791;SDS011;29527;55.766;37.570;2024-02-16T06:23:11;28.42;;;13.38;;
37791;SDS011;29527;55.766;37.570;2024-02-16T06:25:36;27.27;;;13.10;;
37791;SDS011;29527;55.766;37.570;2024-02-16T06:28:02;32.00;;;14.40;;
37791;SDS011;29527;55.766;37.570;2024-02-16T06:30:29;28.65;;;13.63;;
37791;SDS011;29527;55.766;37.570;2024-02-16T06:32:55;30.17;;;13.88;;
37791;SDS011;29527;55.766;37.570;2024-02-16T06:35:20;30.80;;;14.80;;
37791;SDS011;29527;55.766;37.570;2024-02-16T06:37:46;31.45;;;14.18;;
37791;SDS011;29527;55.766;37.570;2024-02-16T06:40:11;32.80;;;14.40;;
37791;SDS011;29527;55.766;37.570;2024-02-16T06:42:37;25.85;;;12.93;;
37791;SDS011;29527;55.766;37.570;2024-02-16T06:45:03;30.23;;;13.90;;
37791;SDS011;29527;55.766;37.570;2024-02-16T06:47:30;28.25;;;13.30;;
37791;SDS011;29527;55.766;37.570;2024-02-16T06:49:56;28.63;;;14.13;;
37791;SDS011;29527;55.766;37.570;2024-02-16T06:52:22;26.75;;;12.95;;
37791;SDS011;29527;55.766;37.570;2024-02-16T06:54:47;27.52;;;13.68;;
37791;SDS011;29527;55.766;37.570;2024-02-16T06:57:15;27.98;;;13.00;;
37791;SDS011;29527;55.766;37.570;2024-02-16T06:59:40;27.83;;;13.05;;
37791;SDS011;29527;55.766;37.570;2024-02-16T07:02:06;29.08;;;13.55;;
37791;SDS011;29527;55.766;37.570;2024-02-16T07:04:32;34.38;;;13.10;;
37791;SDS011;29527;55.766;37.570;2024-02-16T07:06:57;29.13;;;13.48;;
37791;SDS011;29527;55.766;37.570;2024-02-16T07:09:23;30.55;;;13.50;;
37791;SDS011;29527;55.766;37.570;2024-02-16T07:11:48;28.08;;;13.77;;
37791;SDS011;29527;55.766;37.570;2024-02-16T07:14:15;28.15;;;12.75;;
37791;SDS011;29527;55.766;37.570;2024-02-16T07:16:41;24.60;;;12.43;;
37791;SDS011;29527;55.766;37.570;2024-02-16T07:19:06;29.75;;;14.77;;
37791;SDS011;29527;55.766;37.570;2024-02-16T07:21:32;28.05;;;13.48;;
37791;SDS011;29527;55.766;37.570;2024-02-16T07:23:57;32.75;;;13.88;;
37791;SDS011;29527;55.766;37.570;2024-02-16T07:26:23;25.98;;;12.07;;
37791;SDS011;29527;55.766;37.570;2024-02-16T07:28:49;27.20;;;13.45;;
37791;SDS011;29527;55.766;37.570;2024-02-16T07:31:14;25.08;;;12.65;;
37791;SDS011;29527;55.766;37.570;2024-02-16T07:33:41;24.08;;;11.75;;
37791;SDS011;29527;55.766;37.570;2024-02-16T07:36:07;29.98;;;13.20;;
37791;SDS011;29527;55.766;37.570;2024-02-16T07:38:32;29.63;;;13.95;;
37791;SDS011;29527;55.766;37.570;2024-02-16T07:40:58;26.17;;;13.18;;
37791;SDS011;29527;55.766;37.570;2024-02-16T07:43:24;31.55;;;14.93;;
37791;SDS011;29527;55.766;37.570;2024-02-16T07:45:52;24.65;;;13.55;;
37791;SDS011;29527;55.766;37.570;2024-02-16T07:48:21;30.80;;;14.25;;
37791;SDS011;29527;55.766;37.570;2024-02-16T07:50:47;31.95;;;14.05;;
37791;SDS011;29527;55.766;37.570;2024-02-16T07:53:14;32.45;;;14.98;;
37791;SDS011;29527;55.766;37.570;2024-02-16T07:55:39;30.65;;;13.48;;
37791;SDS011;29527;55.766;37.570;2024-02-16T07:58:05;29.02;;;14.35;;
37791;SDS011;29527;55.766;37.570;2024-02-16T08:00:30;30.30;;;14.93;;
37791;SDS011;29527;55.766;37.570;2024-02-16T08:02:56;31.95;;;14.77;;
37791;SDS011;29527;55.766;37.570;2024-02-16T08:05:21;29.25;;;13.73;;
37791;SDS011;29527;55.766;37.570;2024-02-16T08:07:47;26.98;;;13.95;;
37791;SDS011;29527;55.766;37.570;2024-02-16T08:10:12;32.78;;;14.45;;
37791;SDS011;29527;55.766;37.570;2024-02-16T08:12:38;28.13;;;13.85;;
37791;SDS011;29527;55.766;37.570;2024-02-16T08:15:04;29.35;;;14.63;;
37791;SDS011;29527;55.766;37.570;2024-02-16T08:17:34;29.85;;;15.02;;
37791;SDS011;29527;55.766;37.570;2024-02-16T08:20:00;28.52;;;14.82;;
37791;SDS011;29527;55.766;37.570;2024-02-16T08:22:25;30.08;;;14.27;;
37791;SDS011;29527;55.766;37.570;2024-02-16T08:24:51;34.22;;;15.43;;
37791;SDS011;29527;55.766;37.570;2024-02-16T08:27:17;31.55;;;14.73;;
37791;SDS011;29527;55.766;37.570;2024-02-16T08:29:42;30.40;;;16.00;;
37791;SDS011;29527;55.766;37.570;2024-02-16T08:32:08;32.17;;;15.75;;
37791;SDS011;29527;55.766;37.570;2024-02-16T08:34:34;31.08;;;15.07;;
37791;SDS011;29527;55.766;37.570;2024-02-16T08:37:02;35.75;;;17.00;;
37791;SDS011;29527;55.766;37.570;2024-02-16T08:39:29;33.88;;;17.05;;
37791;SDS011;29527;55.766;37.570;2024-02-16T08:41:58;35.53;;;15.60;;
37791;SDS011;29527;55.766;37.570;2024-02-16T08:44:25;31.98;;;15.82;;
37791;SDS011;29527;55.766;37.570;2024-02-16T08:46:51;28.15;;;15.40;;
37791;SDS011;29527;55.766;37.570;2024-02-16T08:49:17;35.20;;;16.27;;
37791;SDS011;29527;55.766;37.570;2024-02-16T08:51:42;31.48;;;16.48;;
37791;SDS011;29527;55.766;37.570;2024-02-16T08:54:09;30.65;;;15.77;;
37791;SDS011;29527;55.766;37.570;2024-02-16T08:56:34;32.55;;;16.85;;
37791;SDS011;29527;55.766;37.570;2024-02-16T08:59:03;31.75;;;16.48;;
37791;SDS011;29527;55.766;37.570;2024-02-16T09:01:36;32.17;;;17.15;;
37791;SDS011;29527;55.766;37.570;2024-02-16T09:04:03;36.33;;;16.70;;
37791;SDS011;29527;55.766;37.570;2024-02-16T09:06:29;33.20;;;16.05;;
37791;SDS011;29527;55.766;37.570;2024-02-16T09:08:54;31.90;;;16.33;;
37791;SDS011;29527;55.766;37.570;2024-02-16T09:11:20;34.15;;;16.33;;
37791;SDS011;29527;55.766;37.570;2024-02-16T09:13:46;42.80;;;17.60;;
37791;SDS011;29527;55.766;37.570;2024-02-16T09:16:12;38.05;;;18.00;;
37791;SDS011;29527;55.766;37.570;2024-02-16T09:18:38;34.60;;;16.98;;
37791;SDS011;29527;55.766;37.570;2024-02-16T09:21:04;32.80;;;17.52;;
37791;SDS011;29527;55.766;37.570;2024-02-16T09:23:31;33.97;;;17.40;;
37791;SDS011;29527;55.766;37.570;2024-02-16T09:25:57;35.47;;;17.30;;
37791;SDS011;29527;55.766;37.570;2024-02-16T09:28:24;32.58;;;15.88;;
37791;SDS011;29527;55.766;37.570;2024-02-16T09:30:49;37.72;;;17.70;;
37791;SDS011;29527;55.766;37.570;2024-02-16T09:33:15;35.30;;;16.95;;
37791;SDS011;29527;55.766;37.570;2024-02-16T09:35:40;40.15;;;18.75;;
37791;SDS011;29527;55.766;37.570;2024-02-16T09:38:06;36.00;;;17.02;;
37791;SDS011;29527;55.766;37.570;2024-02-16T09:40:31;31.95;;;17.48;;
37791;SDS011;29527;55.766;37.570;2024-02-16T09:42:57;37.13;;;17.60;;
37791;SDS011;29527;55.766;37.570;2024-02-16T09:45:23;32.78;;;16.92;;
37791;SDS011;29527;55.766;37.570;2024-02-16T09:47:49;39.03;;;17.65;;
37791;SDS011;29527;55.766;37.570;2024-02-16T09:50:15;34.97;;;17.52;;
37791;SDS011;29527;55.766;37.570;2024-02-16T09:52:41;37.22;;;17.58;;
37791;SDS011;29527;55.766;37.570;2024-02-16T09:55:12;33.70;;;15.82;;
37791;SDS011;29527;55.766;37.570;2024-02-16T09:57:38;49.55;;;19.23;;
37791;SDS011;29527;55.766;37.570;2024-02-16T10:00:04;38.22;;;18.27;;
37791;SDS011;29527;55.766;37.570;2024-02-16T10:02:45;36.35;;;16.35;;
37791;SDS011;29527;55.766;37.570;2024-02-16T10:07:41;36.22;;;18.33;;
37791;SDS011;29527;55.766;37.570;2024-02-16T10:10:19;41.58;;;19.15;;
37791;SDS011;29527;55.766;37.570;2024-02-16T10:12:49;36.22;;;18.48;;
37791;SDS011;29527;55.766;37.570;2024-02-16T10:15:21;36.05;;;18.80;;
37791;SDS011;29527;55.766;37.570;2024-02-16T10:17:59;39.25;;;18.33;;
37791;SDS011;29527;55.766;37.570;2024-02-16T10:20:34;33.83;;;17.98;;
37791;SDS011;29527;55.766;37.570;2024-02-16T10:23:07;34.28;;;18.05;;
37791;SDS011;29527;55.766;37.570;2024-02-16T10:25:35;36.35;;;17.95;;
37791;SDS011;29527;55.766;37.570;2024-02-16T10:28:08;37.05;;;19.08;;
37791;SDS011;29527;55.766;37.570;2024-02-16T10:30:39;38.75;;;19.13;;
37791;SDS011;29527;55.766;37.570;2024-02-16T10:33:05;37.28;;;18.77;;
37791;SDS011;29527;55.766;37.570;2024-02-16T10:35:32;41.58;;;20.02;;
37791;SDS011;29527;55.766;37.570;2024-02-16T10:38:00;40.20;;;18.35;;
37791;SDS011;29527;55.766;37.570;2024-02-16T10:40:30;36.90;;;18.98;;
37791;SDS011;29527;55.766;37.570;2024-02-16T10:42:58;36.83;;;18.40;;
37791;SDS011;29527;55.766;37.570;2024-02-16T10:45:29;35.00;;;18.42;;
37791;SDS011;29527;55.766;37.570;2024-02-16T10:47:56;36.83;;;19.67;;
37791;SDS011;29527;55.766;37.570;2024-02-16T10:50:22;39.83;;;19.70;;
37791;SDS011;29527;55.766;37.570;2024-02-16T10:52:48;40.58;;;19.73;;
37791;SDS011;29527;55.766;37.570;2024-02-16T10:55:15;37.72;;;19.33;;
37791;SDS011;29527;55.766;37.570;2024-02-16T10:57:41;36.28;;;19.15;;
37791;SDS011;29527;55.766;37.570;2024-02-16T11:00:10;36.83;;;18.60;;
37791;SDS011;29527;55.766;37.570;2024-02-16T11:05:41;46.33;;;19.27;;
37791;SDS011;29527;55.766;37.570;2024-02-16T11:08:17;35.25;;;18.77;;
37791;SDS011;29527;55.766;37.570;2024-02-16T11:10:56;33.10;;;17.25;;
37791;SDS011;29527;55.766;37.570;2024-02-16T11:13:23;36.80;;;18.40;;
37791;SDS011;29527;55.766;37.570;2024-02-16T11:15:56;38.70;;;18.55;;
37791;SDS011;29527;55.766;37.570;2024-02-16T11:18:26;34.10;;;17.92;;
37791;SDS011;29527;55.766;37.570;2024-02-16T11:20:53;39.10;;;19.10;;
37791;SDS011;29527;55.766;37.570;2024-02-16T11:23:24;44.63;;;18.15;;
37791;SDS011;29527;55.766;37.570;2024-02-16T11:25:53;39.67;;;19.55;;
37791;SDS011;29527;55.766;37.570;2024-02-16T11:28:19;37.38;;;19.65;;
37791;SDS011;29527;55.766;37.570;2024-02-16T11:30:44;38.35;;;18.27;;
37791;SDS011;29527;55.766;37.570;2024-02-16T11:33:13;39.40;;;18.98;;
37791;SDS011;29527;55.766;37.570;2024-02-16T11:35:39;37.95;;;19.17;;
37791;SDS011;29527;55.766;37.570;2024-02-16T11:38:04;36.38;;;19.60;;
37791;SDS011;29527;55.766;37.570;2024-02-16T11:40:30;34.05;;;18.33;;
37791;SDS011;29527;55.766;37.570;2024-02-16T11:43:01;39.05;;;19.33;;
37791;SDS011;29527;55.766;37.570;2024-02-16T11:45:27;38.13;;;19.25;;
37791;SDS011;29527;55.766;37.570;2024-02-16T11:48:07;38.30;;;19.13;;
37791;SDS011;29527;55.766;37.570;2024-02-16T11:50:35;40.17;;;19.65;;
37791;SDS011;29527;55.766;37.570;2024-02-16T11:53:01;35.90;;;19.23;;
37791;SDS011;29527;55.766;37.570;2024-02-16T11:55:27;37.17;;;18.20;;
37791;SDS011;29527;55.766;37.570;2024-02-16T11:57:52;34.67;;;16.38;;
37791;SDS011;29527;55.766;37.570;2024-02-16T12:00:19;35.45;;;18.00;;
37791;SDS011;29527;55.766;37.570;2024-02-16T12:02:45;37.33;;;18.83;;
37791;SDS011;29527;55.766;37.570;2024-02-16T12:05:13;33.78;;;18.42;;
37791;SDS011;29527;55.766;37.570;2024-02-16T12:07:40;37.28;;;18.08;;
37791;SDS011;29527;55.766;37.570;2024-02-16T12:10:06;34.25;;;18.42;;
37791;SDS011;29527;55.766;37.570;2024-02-16T12:12:32;34.92;;;17.80;;
37791;SDS011;29527;55.766;37.570;2024-02-16T12:14:58;35.15;;;18.50;;
37791;SDS011;29527;55.766;37.570;2024-02-16T12:17:24;37.17;;;18.88;;
37791;SDS011;29527;55.766;37.570;2024-02-16T12:19:50;35.33;;;17.85;;
37791;SDS011;29527;55.766;37.570;2024-02-16T12:22:17;34.47;;;17.48;;
37791;SDS011;29527;55.766;37.570;2024-02-16T12:24:46;35.40;;;18.23;;
37791;SDS011;29527;55.766;37.570;2024-02-16T12:27:13;37.58;;;18.20;;
37791;SDS011;29527;55.766;37.570;2024-02-16T12:29:39;31.08;;;16.23;;
37791;SDS011;29527;55.766;37.570;2024-02-16T12:32:05;39.10;;;17.30;;
37791;SDS011;29527;55.766;37.570;2024-02-16T12:34:31;34.03;;;17.65;;
37791;SDS011;29527;55.766;37.570;2024-02-16T12:36:57;36.05;;;16.88;;
37791;SDS011;29527;55.766;37.570;2024-02-16T12:39:22;35.83;;;16.92;;
37791;SDS011;29527;55.766;37.570;2024-02-16T12:41:47;34.53;;;17.33;;
37791;SDS011;29527;55.766;37.570;2024-02-16T12:44:14;37.20;;;17.83;;
37791;SDS011;29527;55.766;37.570;2024-02-16T12:46:40;32.97;;;17.13;;
37791;SDS011;29527;55.766;37.570;2024-02-16T12:49:06;31.45;;;17.15;;
37791;SDS011;29527;55.766;37.570;2024-02-16T12:51:32;34.30;;;17.35;;
37791;SDS011;29527;55.766;37.570;2024-02-16T12:53:58;34.10;;;17.05;;
37791;SDS011;29527;55.766;37.570;2024-02-16T12:56:25;41.05;;;18.42;;
37791;SDS011;29527;55.766;37.570;2024-02-16T12:58:51;31.17;;;16.75;;
37791;SDS011;29527;55.766;37.570;2024-02-16T13:01:16;33.45;;;16.60;;
37791;SDS011;29527;55.766;37.570;2024-02-16T13:03:45;32.15;;;16.40;;
37791;SDS011;29527;55.766;37.570;2024-02-16T13:06:10;34.30;;;16.70;;
37791;SDS011;29527;55.766;37.570;2024-02-16T13:08:36;34.47;;;18.00;;
37791;SDS011;29527;55.766;37.570;2024-02-16T13:11:02;38.78;;;17.90;;
37791;SDS011;29527;55.766;37.570;2024-02-16T13:13:28;33.97;;;17.60;;
37791;SDS011;29527;55.766;37.570;2024-02-16T13:15:53;38.15;;;17.50;;
37791;SDS011;29527;55.766;37.570;2024-02-16T13:18:21;40.58;;;16.52;;
37791;SDS011;29527;55.766;37.570;2024-02-16T13:20:46;33.38;;;17.85;;
37791;SDS011;29527;55.766;37.570;2024-02-16T13:23:12;36.33;;;18.17;;
37791;SDS011;29527;55.766;37.570;2024-02-16T13:25:38;34.65;;;17.85;;
37791;SDS011;29527;55.766;37.570;2024-02-16T13:28:03;33.80;;;16.83;;
37791;SDS011;29527;55.766;37.570;2024-02-16T13:30:29;34.60;;;16.23;;
37791;SDS011;29527;55.766;37.570;2024-02-16T13:32:55;34.63;;;17.67;;
37791;SDS011;29527;55.766;37.570;2024-02-16T13:35:20;37.97;;;18.90;;
37791;SDS011;29527;55.766;37.570;2024-02-16T13:37:46;35.67;;;17.70;;
37791;SDS011;29527;55.766;37.570;2024-02-16T13:40:12;37.78;;;17.13;;
37791;SDS011;29527;55.766;37.570;2024-02-16T13:42:38;34.08;;;16.52;;
37791;SDS011;29527;55.766;37.570;2024-02-16T13:45:04;34.28;;;16.95;;
37791;SDS011;29527;55.766;37.570;2024-02-16T13:47:29;36.70;;;17.90;;
37791;SDS011;29527;55.766;37.570;2024-02-16T13:49:55;34.00;;;17.55;;
37791;SDS011;29527;55.766;37.570;2024-02-16T13:52:22;43.47;;;19.58;;
37791;SDS011;29527;55.766;37.570;2024-02-16T13:54:49;34.65;;;18.00;;
37791;SDS011;29527;55.766;37.570;2024-02-16T13:57:14;36.20;;;18.35;;
37791;SDS011;29527;55.766;37.570;2024-02-16T13:59:40;35.70;;;18.85;;
37791;SDS011;29527;55.766;37.570;2024-02-16T14:02:06;32.70;;;16.60;;
37791;SDS011;29527;55.766;37.570;2024-02-16T14:04:32;31.20;;;17.02;;
37791;SDS011;29527;55.766;37.570;2024-02-16T14:06:58;35.40;;;17.13;;
37791;SDS011;29527;55.766;37.570;2024-02-16T14:09:23;36.08;;;17.60;;